Time;durP1;ratioP1;P1;durP2;ratioP2;P2;SDS_P1;SDS_P2;PMS_P1;PMS_P2;Temp;Humidity;BMP_temperature;BMP_pressure;BME280_temperature;BME280_humidity;BME280_pressure;Samples;Min_cycle;Max_cycle;Signal;HPM_P1;HPM_P2
2021/12/11 00:00:19;;;;;;;;;;;-1.80;90.60;;;;;;4979375;28;19921;-78
2021/12/11 00:02:54;;;;;;;;;;;-1.90;90.50;;;;;;4986696;28;19972;-78
2021/12/11 00:05:21;;;;;;;;;;;-1.90;90.30;;;;;;4979554;28;19922;-80
2021/12/11 00:07:47;;;;;;;;;;;-1.90;90.10;;;;;;5011274;28;19925;-80
2021/12/11 00:10:14;;;;;;;;;;;-2.10;90.40;;;;;;4996914;28;19929;-78
2021/12/11 00:12:47;;;;;;;;;;;-2.10;90.40;;;;;;4996894;28;19921;-79
2021/12/11 00:15:16;;;;;;;;;;;-2.10;90.30;;;;;;4980131;28;20382;-80
2021/12/11 00:17:43;;;;;;;;;;;-2.10;90.20;;;;;;5006067;28;19922;-77
2021/12/11 00:20:30;;;;;;;;;;;-2.10;90.30;;;;;;4985086;28;19929;-80
2021/12/11 00:22:57;;;;;;;;;;;-2.10;90.20;;;;;;4984886;28;19972;-79
2021/12/11 00:25:24;;;;;;;;;;;-2.10;90.30;;;;;;4986640;28;19972;-78
2021/12/11 00:27:52;;;;;;;;;;;-2.10;90.10;;;;;;4979366;28;19922;-80
2021/12/11 00:30:27;;;;;;;;;;;-2.00;90.10;;;;;;5001587;28;19922;-79
2021/12/11 00:32:59;;;;;;;;;;;-2.00;90.10;;;;;;4983508;28;19933;-81
2021/12/11 00:35:26;;;;;;;;;;;-1.90;90.70;;;;;;4992193;28;20309;-77
2021/12/11 00:38:00;;;;;;;;;;;-1.80;91.10;;;;;;4989164;28;19921;-79
2021/12/11 00:40:27;;;;;;;;;;;-1.80;90.90;;;;;;4978930;28;19926;-79
2021/12/11 00:42:56;;;;;;;;;;;-1.80;91.00;;;;;;4999749;28;19976;-79
2021/12/11 00:45:25;;;;;;;;;;;-1.80;90.60;;;;;;5003547;28;19948;-79
2021/12/11 00:47:55;;;;;;;;;;;-1.80;90.50;;;;;;4980791;28;19921;-78
2021/12/11 00:50:25;;;;;;;;;;;-1.80;90.40;;;;;;4983082;28;19921;-80
2021/12/11 00:52:56;;;;;;;;;;;-1.90;90.10;;;;;;4988619;28;19967;-80
2021/12/11 00:55:26;;;;;;;;;;;-2.00;90.00;;;;;;4995878;28;19929;-80
2021/12/11 00:58:11;;;;;;;;;;;-2.00;90.10;;;;;;4986108;28;19972;-78
2021/12/11 01:00:40;;;;;;;;;;;-2.00;90.20;;;;;;4992238;28;20385;-80
2021/12/11 01:03:08;;;;;;;;;;;-2.10;89.90;;;;;;4994963;28;19922;-78
2021/12/11 01:05:37;;;;;;;;;;;-2.10;89.70;;;;;;4981990;28;19984;-80
2021/12/11 01:08:12;;;;;;;;;;;-2.20;89.60;;;;;;4979058;28;19929;-80
2021/12/11 01:10:39;;;;;;;;;;;-2.20;90.00;;;;;;4984317;28;19968;-79
2021/12/11 01:13:06;;;;;;;;;;;-2.20;90.00;;;;;;4979456;28;19925;-79
2021/12/11 01:15:35;;;;;;;;;;;-2.20;90.20;;;;;;4984113;28;19921;-78
2021/12/11 01:20:53;;;;;;;;;;;-2.20;90.30;;;;;;4998568;28;19921;-76
2021/12/11 01:25:56;;;;;;;;;;;-2.20;90.30;;;;;;5001795;28;19976;-77
2021/12/11 01:28:23;;;;;;;;;;;-2.30;90.40;;;;;;4989668;28;19921;-78
2021/12/11 01:30:50;;;;;;;;;;;-2.30;90.30;;;;;;4967691;28;20378;-79
2021/12/11 01:33:17;;;;;;;;;;;-2.20;90.40;;;;;;4993387;28;19926;-79
2021/12/11 01:35:44;;;;;;;;;;;-2.30;90.20;;;;;;5007168;28;19930;-80
2021/12/11 01:38:17;;;;;;;;;;;-2.30;90.10;;;;;;4972525;28;19922;-80
2021/12/11 01:40:46;;;;;;;;;;;-2.30;90.00;;;;;;4971673;28;19933;-80
2021/12/11 01:43:13;;;;;;;;;;;-2.40;90.10;;;;;;4992204;28;20362;-80
2021/12/11 01:45:45;;;;;;;;;;;-2.50;89.50;;;;;;4977714;28;19930;-80
2021/12/11 01:48:20;;;;;;;;;;;-2.50;90.10;;;;;;4986436;28;20386;-77
2021/12/11 01:50:49;;;;;;;;;;;-2.50;90.20;;;;;;4979565;28;20369;-80
2021/12/11 01:53:19;;;;;;;;;;;-2.50;90.70;;;;;;4987860;28;19968;-79
2021/12/11 01:55:47;;;;;;;;;;;-2.50;90.60;;;;;;4980177;28;19929;-76
2021/12/11 01:58:20;;;;;;;;;;;-2.50;90.60;;;;;;4996523;28;19932;-80
2021/12/11 02:00:49;;;;;;;;;;;-2.50;90.20;;;;;;4981244;28;19929;-78
2021/12/11 02:03:18;;;;;;;;;;;-2.50;90.10;;;;;;4994225;28;20011;-77
2021/12/11 02:05:45;;;;;;;;;;;-2.60;90.00;;;;;;4999438;28;20373;-79
2021/12/11 02:08:13;;;;;;;;;;;-2.60;90.10;;;;;;5007249;28;19921;-80
2021/12/11 02:10:45;;;;;;;;;;;-2.60;89.80;;;;;;4978044;28;19929;-78
2021/12/11 02:13:18;;;;;;;;;;;-2.70;90.50;;;;;;4984165;28;19921;-80
2021/12/11 02:15:49;;;;;;;;;;;-2.70;90.40;;;;;;4982383;28;19928;-80
2021/12/11 02:18:18;;;;;;;;;;;-2.70;90.30;;;;;;4981099;28;19972;-78
2021/12/11 02:20:49;;;;;;;;;;;-2.70;90.50;;;;;;4986337;28;20336;-77
2021/12/11 02:23:16;;;;;;;;;;;-2.60;90.50;;;;;;4982658;28;19930;-75
2021/12/11 02:25:46;;;;;;;;;;;-2.60;90.90;;;;;;4995525;28;20326;-76
2021/12/11 02:28:13;;;;;;;;;;;-2.60;90.90;;;;;;4997492;28;19929;-76
2021/12/11 02:31:04;;;;;;;;;;;-2.60;90.80;;;;;;4983942;28;19929;-76
2021/12/11 02:33:40;;;;;;;;;;;-2.60;90.90;;;;;;4976523;28;19922;-76
2021/12/11 02:36:13;;;;;;;;;;;-2.60;91.40;;;;;;4990876;28;20012;-76
2021/12/11 02:38:53;;;;;;;;;;;-2.50;91.40;;;;;;4982951;28;19930;-79
2021/12/11 02:41:36;;;;;;;;;;;-2.50;91.30;;;;;;4980349;28;19926;-80
2021/12/11 02:44:15;;;;;;;;;;;-2.40;91.10;;;;;;4985341;28;19972;-78
2021/12/11 02:46:47;;;;;;;;;;;-2.40;91.10;;;;;;4983298;28;19922;-78
2021/12/11 02:49:16;;;;;;;;;;;-2.40;91.10;;;;;;4988848;28;19991;-76
2021/12/11 02:52:07;;;;;;;;;;;-2.30;91.60;;;;;;5002753;28;20383;-78
2021/12/11 02:54:37;;;;;;;;;;;-2.30;91.00;;;;;;4998114;28;19922;-78
2021/12/11 02:57:06;;;;;;;;;;;-2.40;90.90;;;;;;4978652;28;19984;-79
2021/12/11 02:59:39;;;;;;;;;;;-2.40;91.00;;;;;;4983789;28;19929;-80
2021/12/11 03:02:12;;;;;;;;;;;-2.40;91.00;;;;;;4990757;28;19922;-78
2021/12/11 03:04:52;;;;;;;;;;;-2.20;91.20;;;;;;4997933;28;20388;-78
2021/12/11 03:07:25;;;;;;;;;;;-2.20;91.10;;;;;;4985562;28;19929;-78
2021/12/11 03:09:54;;;;;;;;;;;-2.20;91.10;;;;;;4989819;28;19922;-79
2021/12/11 03:12:21;;;;;;;;;;;-2.20;91.00;;;;;;4990254;28;19959;-79
2021/12/11 03:14:48;;;;;;;;;;;-2.20;91.10;;;;;;4984397;28;19941;-78
2021/12/11 03:17:16;;;;;;;;;;;-2.20;91.20;;;;;;4990706;28;20448;-80
2021/12/11 03:19:45;;;;;;;;;;;-2.10;91.20;;;;;;5009362;28;19975;-78
2021/12/11 03:22:17;;;;;;;;;;;-2.00;91.30;;;;;;4992360;28;20325;-76
2021/12/11 03:24:44;;;;;;;;;;;-2.00;91.10;;;;;;4985256;28;19922;-78
2021/12/11 03:27:10;;;;;;;;;;;-2.00;91.00;;;;;;5000793;28;20430;-81
2021/12/11 03:29:37;;;;;;;;;;;-2.10;91.00;;;;;;4997514;28;19951;-79
2021/12/11 03:32:06;;;;;;;;;;;-2.10;90.80;;;;;;4983268;28;19944;-76
2021/12/11 03:34:33;;;;;;;;;;;-2.00;90.70;;;;;;4987363;28;20428;-80
2021/12/11 03:37:01;;;;;;;;;;;-2.00;90.70;;;;;;4980124;28;19985;-76
2021/12/11 03:39:30;;;;;;;;;;;-2.00;90.70;;;;;;5002981;28;19975;-78
2021/12/11 03:41:59;;;;;;;;;;;-1.90;90.50;;;;;;4976319;28;19926;-80
2021/12/11 03:44:32;;;;;;;;;;;-1.90;90.40;;;;;;4991121;28;19972;-76
2021/12/11 03:47:00;;;;;;;;;;;-1.90;90.30;;;;;;4992689;28;19933;-80
2021/12/11 03:49:27;;;;;;;;;;;-1.90;90.40;;;;;;4985388;28;20030;-80
2021/12/11 03:51:55;;;;;;;;;;;-1.80;90.30;;;;;;4979284;28;20456;-80
2021/12/11 03:54:25;;;;;;;;;;;-1.90;90.30;;;;;;4989118;28;19975;-79
2021/12/11 03:56:55;;;;;;;;;;;-1.80;89.90;;;;;;5012129;28;19932;-80
2021/12/11 03:59:22;;;;;;;;;;;-1.80;89.20;;;;;;4984596;28;19928;-77
2021/12/11 04:01:57;;;;;;;;;;;-1.70;88.20;;;;;;4987175;28;19980;-77
2021/12/11 04:04:26;;;;;;;;;;;-1.60;87.40;;;;;;5010938;28;19921;-79
2021/12/11 04:06:54;;;;;;;;;;;-1.50;86.50;;;;;;4980326;28;20365;-78
2021/12/11 04:09:22;;;;;;;;;;;-1.60;86.00;;;;;;4976990;28;20297;-77
2021/12/11 04:11:50;;;;;;;;;;;-1.60;85.80;;;;;;4995152;28;19971;-78
2021/12/11 04:14:19;;;;;;;;;;;-1.30;81.10;;;;;;4992084;28;20424;-79
2021/12/11 04:16:47;;;;;;;;;;;-0.30;71.30;;;;;;4978604;28;19944;-78
2021/12/11 04:19:14;;;;;;;;;;;0.80;66.50;;;;;;4975861;28;20264;-80
2021/12/11 04:21:43;;;;;;;;;;;1.90;61.40;;;;;;4975285;28;19922;-76
2021/12/11 04:24:11;;;;;;;;;;;2.70;58.10;;;;;;5001956;28;19925;-79
2021/12/11 04:26:38;;;;;;;;;;;3.40;55.30;;;;;;4999430;28;19926;-80
2021/12/11 04:29:06;;;;;;;;;;;3.80;53.20;;;;;;4989036;28;19925;-79
2021/12/11 04:31:34;;;;;;;;;;;4.20;50.70;;;;;;4979916;28;19938;-78
2021/12/11 04:34:05;;;;;;;;;;;4.60;50.50;;;;;;4993501;28;19921;-80
2021/12/11 04:36:34;;;;;;;;;;;4.70;48.70;;;;;;4990356;28;19921;-80
2021/12/11 04:39:02;;;;;;;;;;;4.90;48.30;;;;;;4979155;28;20329;-80
2021/12/11 04:41:36;;;;;;;;;;;5.10;46.20;;;;;;4986980;28;20270;-79
2021/12/11 04:44:06;;;;;;;;;;;5.40;46.30;;;;;;4979887;28;19929;-80
2021/12/11 04:46:34;;;;;;;;;;;5.50;45.50;;;;;;4978598;28;19921;-80
2021/12/11 04:49:12;;;;;;;;;;;5.60;44.50;;;;;;4986504;28;20374;-78
2021/12/11 04:54:26;;;;;;;;;;;5.90;42.70;;;;;;4996781;28;19922;-79
2021/12/11 05:10:14;;;;;;;;;;;6.40;40.90;;;;;;5001437;28;19925;-80
2021/12/11 05:12:42;;;;;;;;;;;6.50;40.40;;;;;;4979252;28;19944;-79
2021/12/11 05:15:12;;;;;;;;;;;6.60;39.70;;;;;;4989098;28;19926;-79
2021/12/11 05:17:40;;;;;;;;;;;6.60;40.00;;;;;;4988035;28;19926;-79
2021/12/11 05:20:09;;;;;;;;;;;6.60;38.90;;;;;;4979871;28;20333;-78
2021/12/11 05:22:37;;;;;;;;;;;6.80;38.20;;;;;;4975179;28;20409;-77
2021/12/11 05:25:04;;;;;;;;;;;6.90;38.30;;;;;;4974192;28;19926;-80
2021/12/11 05:27:32;;;;;;;;;;;6.80;38.40;;;;;;4988629;28;19921;-77
2021/12/11 05:30:00;;;;;;;;;;;6.90;38.40;;;;;;4984508;28;19931;-76
2021/12/11 05:32:27;;;;;;;;;;;6.90;37.70;;;;;;4980145;28;20381;-80
2021/12/11 05:34:55;;;;;;;;;;;6.90;38.00;;;;;;4980387;28;20001;-79
2021/12/11 05:37:21;;;;;;;;;;;6.90;37.40;;;;;;4990009;28;19921;-80
2021/12/11 05:39:48;;;;;;;;;;;7.10;37.00;;;;;;4978340;28;19922;-79
2021/12/11 05:42:15;;;;;;;;;;;7.10;37.00;;;;;;4978055;28;20322;-78
2021/12/11 05:44:42;;;;;;;;;;;7.20;36.30;;;;;;4992128;28;19969;-78
2021/12/11 05:47:09;;;;;;;;;;;7.10;36.90;;;;;;4990184;28;19972;-78
2021/12/11 05:49:36;;;;;;;;;;;7.10;36.80;;;;;;4979363;28;19922;-79
2021/12/11 05:52:06;;;;;;;;;;;7.10;36.70;;;;;;4981057;28;20271;-78
2021/12/11 05:54:32;;;;;;;;;;;7.10;36.80;;;;;;4978867;28;19926;-78
2021/12/11 05:57:03;;;;;;;;;;;7.10;37.60;;;;;;4978995;28;19925;-79
2021/12/11 05:59:30;;;;;;;;;;;7.10;37.00;;;;;;4968940;28;20704;-76
2021/12/11 06:01:59;;;;;;;;;;;7.20;36.30;;;;;;4986871;28;19921;-79
2021/12/11 06:04:31;;;;;;;;;;;7.30;36.10;;;;;;4988599;28;20321;-80
2021/12/11 06:06:58;;;;;;;;;;;7.30;36.30;;;;;;4990307;28;19925;-79
2021/12/11 06:09:26;;;;;;;;;;;7.40;36.00;;;;;;4983527;28;19926;-80
2021/12/11 06:11:55;;;;;;;;;;;7.40;36.60;;;;;;4996176;28;19929;-80
2021/12/11 06:14:22;;;;;;;;;;;7.40;35.90;;;;;;4990225;28;20370;-78
2021/12/11 06:16:51;;;;;;;;;;;7.30;36.70;;;;;;5001455;28;19930;-78
2021/12/11 06:19:21;;;;;;;;;;;7.30;36.70;;;;;;4979293;28;19921;-78
2021/12/11 06:21:49;;;;;;;;;;;7.20;37.10;;;;;;4976421;28;20286;-78
2021/12/11 06:24:16;;;;;;;;;;;7.20;36.40;;;;;;4985878;28;19928;-77
2021/12/11 06:26:43;;;;;;;;;;;7.20;36.50;;;;;;4978379;28;19964;-79
2021/12/11 06:29:11;;;;;;;;;;;7.20;37.60;;;;;;4989338;28;19953;-78
2021/12/11 06:31:38;;;;;;;;;;;7.10;37.00;;;;;;4980779;28;19921;-77
2021/12/11 06:34:05;;;;;;;;;;;7.20;36.40;;;;;;4993780;28;20025;-80
2021/12/11 06:36:32;;;;;;;;;;;7.20;37.30;;;;;;4992740;28;19968;-77
2021/12/11 06:39:03;;;;;;;;;;;7.20;36.50;;;;;;4985556;28;19921;-79
2021/12/11 06:41:32;;;;;;;;;;;7.20;36.80;;;;;;4980326;28;19969;-79
2021/12/11 06:43:59;;;;;;;;;;;7.10;37.00;;;;;;4999668;28;19972;-79
2021/12/11 06:46:26;;;;;;;;;;;7.20;36.30;;;;;;4986880;28;19921;-79
2021/12/11 06:48:53;;;;;;;;;;;7.30;36.10;;;;;;4988514;28;20381;-77
2021/12/11 06:51:20;;;;;;;;;;;7.40;35.50;;;;;;4988834;28;19935;-78
2021/12/11 06:53:50;;;;;;;;;;;7.40;36.20;;;;;;4987651;28;19926;-79
2021/12/11 06:56:17;;;;;;;;;;;7.40;36.10;;;;;;4982620;28;19922;-80
2021/12/11 06:58:44;;;;;;;;;;;7.40;35.90;;;;;;4981315;28;20297;-79
2021/12/11 07:01:11;;;;;;;;;;;7.40;36.40;;;;;;4981081;28;19922;-80
2021/12/11 07:03:40;;;;;;;;;;;7.40;36.30;;;;;;4990806;28;19964;-81
2021/12/11 07:06:08;;;;;;;;;;;7.40;36.40;;;;;;4982969;28;20287;-80
2021/12/11 07:08:38;;;;;;;;;;;7.40;36.00;;;;;;4993041;28;19928;-78
2021/12/11 07:11:09;;;;;;;;;;;7.50;35.70;;;;;;4984419;28;20660;-78
2021/12/11 07:13:36;;;;;;;;;;;7.50;35.50;;;;;;4978544;28;19968;-77
2021/12/11 07:16:03;;;;;;;;;;;7.60;35.30;;;;;;4981039;28;19960;-79
2021/12/11 07:18:34;;;;;;;;;;;7.60;35.70;;;;;;4980915;28;20349;-77
2021/12/11 07:21:01;;;;;;;;;;;7.60;35.30;;;;;;4979208;28;19925;-79
2021/12/11 07:23:28;;;;;;;;;;;7.70;35.60;;;;;;4976744;28;20429;-76
2021/12/11 07:26:01;;;;;;;;;;;7.70;35.60;;;;;;4980718;28;20378;-79
2021/12/11 07:28:28;;;;;;;;;;;7.60;35.60;;;;;;4967551;28;20412;-77
2021/12/11 07:30:56;;;;;;;;;;;7.60;35.90;;;;;;4980051;28;19945;-77
2021/12/11 07:33:23;;;;;;;;;;;7.60;36.10;;;;;;4981401;28;19926;-77
2021/12/11 07:35:51;;;;;;;;;;;7.80;35.50;;;;;;4979802;28;19929;-81
2021/12/11 07:38:18;;;;;;;;;;;8.40;34.70;;;;;;4980711;28;19921;-79
2021/12/11 07:40:48;;;;;;;;;;;9.30;33.20;;;;;;4989531;28;19973;-80
2021/12/11 07:43:15;;;;;;;;;;;10.00;31.70;;;;;;4978222;28;19936;-77
2021/12/11 07:45:42;;;;;;;;;;;10.40;30.70;;;;;;5001094;28;19937;-80
2021/12/11 07:48:10;;;;;;;;;;;10.60;30.00;;;;;;4985613;28;19922;-80
2021/12/11 07:50:37;;;;;;;;;;;10.60;30.10;;;;;;4981447;28;20424;-81
2021/12/11 07:53:05;;;;;;;;;;;10.50;30.50;;;;;;4971889;28;19932;-80
2021/12/11 07:55:32;;;;;;;;;;;10.20;31.10;;;;;;4979517;28;19929;-80
2021/12/11 07:58:00;;;;;;;;;;;10.00;31.30;;;;;;4980389;28;19972;-78
2021/12/11 08:00:28;;;;;;;;;;;9.70;31.70;;;;;;4979115;28;19922;-80
2021/12/11 08:02:55;;;;;;;;;;;9.50;32.50;;;;;;4986519;28;19932;-80
2021/12/11 08:05:23;;;;;;;;;;;9.50;32.40;;;;;;4987338;28;19921;-78
2021/12/11 08:07:50;;;;;;;;;;;9.40;32.00;;;;;;4980499;28;19946;-79
2021/12/11 08:10:18;;;;;;;;;;;9.40;32.50;;;;;;4978157;28;19921;-77
2021/12/11 08:12:45;;;;;;;;;;;9.30;33.40;;;;;;4977681;28;19925;-77
2021/12/11 08:15:14;;;;;;;;;;;9.30;32.90;;;;;;4980251;28;19922;-80
2021/12/11 08:17:41;;;;;;;;;;;9.30;33.20;;;;;;4976676;28;20310;-78
2021/12/11 08:20:09;;;;;;;;;;;9.40;33.20;;;;;;4980174;28;19922;-78
2021/12/11 08:22:36;;;;;;;;;;;9.40;33.80;;;;;;4979913;28;19949;-77
2021/12/11 08:25:05;;;;;;;;;;;9.50;33.00;;;;;;4975942;28;19929;-79
2021/12/11 08:27:32;;;;;;;;;;;9.50;32.70;;;;;;4979519;28;20385;-79
2021/12/11 08:29:58;;;;;;;;;;;9.60;32.20;;;;;;4988160;28;19968;-80
2021/12/11 08:32:25;;;;;;;;;;;9.60;32.40;;;;;;4979559;28;19932;-77
2021/12/11 08:34:54;;;;;;;;;;;9.70;32.10;;;;;;4979771;28;19921;-78
2021/12/11 08:37:23;;;;;;;;;;;9.80;32.40;;;;;;4977110;28;19949;-77
2021/12/11 08:39:50;;;;;;;;;;;9.80;32.60;;;;;;4980638;28;20382;-77
2021/12/11 08:42:19;;;;;;;;;;;9.80;32.50;;;;;;4998616;28;20441;-78
2021/12/11 08:44:52;;;;;;;;;;;9.80;32.60;;;;;;4981099;28;19926;-77
2021/12/11 08:47:21;;;;;;;;;;;9.90;32.40;;;;;;4979039;28;19961;-80
2021/12/11 08:49:49;;;;;;;;;;;9.90;32.20;;;;;;4977232;28;20389;-78
2021/12/11 08:52:21;;;;;;;;;;;9.90;32.30;;;;;;4984913;28;20390;-80
2021/12/11 08:54:48;;;;;;;;;;;9.90;32.40;;;;;;4979158;28;19921;-78
2021/12/11 08:57:17;;;;;;;;;;;10.00;32.10;;;;;;4980151;28;20369;-80
2021/12/11 08:59:46;;;;;;;;;;;10.00;32.90;;;;;;4991446;28;19942;-77
2021/12/11 09:02:16;;;;;;;;;;;10.10;32.00;;;;;;4999911;28;19929;-78
2021/12/11 09:04:49;;;;;;;;;;;10.00;32.80;;;;;;4993611;28;19922;-77
2021/12/11 09:07:19;;;;;;;;;;;10.10;32.20;;;;;;4976946;28;19940;-78
2021/12/11 09:09:51;;;;;;;;;;;10.10;32.20;;;;;;4985400;28;19957;-77
2021/12/11 09:12:31;;;;;;;;;;;10.20;32.50;;;;;;4990621;28;19956;-77
2021/12/11 09:15:07;;;;;;;;;;;10.30;32.90;;;;;;4974712;28;20054;-80
2021/12/11 09:17:42;;;;;;;;;;;10.30;32.00;;;;;;4983044;28;20386;-80
2021/12/11 09:20:24;;;;;;;;;;;10.40;31.90;;;;;;4980158;28;19922;-80
2021/12/11 09:23:02;;;;;;;;;;;10.40;31.90;;;;;;4980319;28;20444;-80
2021/12/11 09:25:34;;;;;;;;;;;10.40;31.90;;;;;;4990686;28;19922;-77
2021/12/11 09:28:19;;;;;;;;;;;10.50;31.80;;;;;;4981238;28;19922;-79
2021/12/11 09:30:45;;;;;;;;;;;10.50;31.90;;;;;;4990499;28;19929;-81
2021/12/11 09:33:14;;;;;;;;;;;10.60;31.70;;;;;;4982833;28;19922;-76
2021/12/11 09:35:45;;;;;;;;;;;10.60;31.90;;;;;;4998743;28;19957;-78
2021/12/11 09:38:15;;;;;;;;;;;10.70;31.30;;;;;;4968424;28;19921;-80
2021/12/11 09:40:41;;;;;;;;;;;10.70;31.70;;;;;;4970211;28;19925;-77
2021/12/11 09:43:24;;;;;;;;;;;10.70;31.70;;;;;;5002783;28;20030;-80
2021/12/11 09:45:51;;;;;;;;;;;10.80;31.70;;;;;;4988009;28;19930;-79
2021/12/11 09:48:18;;;;;;;;;;;10.80;31.30;;;;;;4986917;28;19921;-78
2021/12/11 09:50:54;;;;;;;;;;;10.90;30.80;;;;;;4993870;28;19981;-80
2021/12/11 09:53:23;;;;;;;;;;;11.00;31.50;;;;;;4980028;28;19925;-77
2021/12/11 09:55:50;;;;;;;;;;;11.00;31.50;;;;;;4980892;28;19922;-78
2021/12/11 09:58:21;;;;;;;;;;;11.00;31.20;;;;;;4980420;28;19929;-79
2021/12/11 10:01:02;;;;;;;;;;;11.10;31.40;;;;;;4988291;28;19926;-78
2021/12/11 10:03:31;;;;;;;;;;;11.20;30.90;;;;;;4978840;28;19921;-79
2021/12/11 10:06:10;;;;;;;;;;;11.30;30.60;;;;;;4984757;28;19949;-79
2021/12/11 10:08:41;;;;;;;;;;;11.40;30.60;;;;;;4990549;28;19953;-79
2021/12/11 10:11:08;;;;;;;;;;;11.40;30.70;;;;;;4982534;28;19975;-78
2021/12/11 10:13:38;;;;;;;;;;;11.40;30.70;;;;;;5007246;28;20378;-78
2021/12/11 10:16:05;;;;;;;;;;;11.50;30.90;;;;;;4981239;28;19992;-79
2021/12/11 10:18:32;;;;;;;;;;;11.50;31.20;;;;;;4990945;28;20365;-79
2021/12/11 10:20:59;;;;;;;;;;;11.60;30.50;;;;;;4998755;28;20325;-78
2021/12/11 10:23:28;;;;;;;;;;;11.70;30.20;;;;;;5013306;28;19941;-78
2021/12/11 10:25:56;;;;;;;;;;;11.70;30.70;;;;;;4970982;28;19972;-80
2021/12/11 10:28:24;;;;;;;;;;;11.80;30.60;;;;;;4982748;28;19930;-80
2021/12/11 10:30:53;;;;;;;;;;;11.90;30.00;;;;;;4991291;28;19945;-79
2021/12/11 10:33:21;;;;;;;;;;;11.90;30.20;;;;;;4987595;28;20389;-79
2021/12/11 14:45:01;;;;;;;;;;;12.50;31.90;;;;;;5035598;28;20039;-78
2021/12/11 14:47:28;;;;;;;;;;;12.40;31.80;;;;;;5022466;28;19925;-77
2021/12/11 14:49:56;;;;;;;;;;;12.40;32.00;;;;;;5014833;28;19975;-81
2021/12/11 14:52:25;;;;;;;;;;;12.40;32.00;;;;;;5038987;28;19917;-80
2021/12/11 14:54:57;;;;;;;;;;;12.40;31.70;;;;;;5020495;28;19925;-80
2021/12/11 14:57:23;;;;;;;;;;;12.40;33.00;;;;;;5018661;28;19948;-78
2021/12/11 14:59:52;;;;;;;;;;;12.40;32.40;;;;;;5038188;28;19920;-80
2021/12/11 15:02:24;;;;;;;;;;;12.40;31.90;;;;;;5042765;28;19928;-80
2021/12/11 15:04:53;;;;;;;;;;;12.40;33.20;;;;;;5007874;28;19925;-80
2021/12/11 15:07:21;;;;;;;;;;;12.40;33.90;;;;;;5006551;28;20296;-80
2021/12/11 15:09:50;;;;;;;1.00;0.80;;;12.40;34.70;;;;;;5009392;28;19925;-80
2021/12/11 15:12:19;;;;;;;1.20;1.00;;;12.30;34.20;;;;;;5023017;28;20046;-79
2021/12/11 15:14:47;;;;;;;;;;;12.30;34.60;;;;;;5008558;28;20108;-80
2021/12/11 15:17:16;;;;;;;;;;;12.20;33.60;;;;;;5005794;28;19976;-79
2021/12/11 15:19:46;;;;;;;;;;;12.10;33.40;;;;;;5009966;28;19930;-79
2021/12/11 15:22:17;;;;;;;;;;;11.80;34.00;;;;;;5005880;28;19922;-79
2021/12/11 15:24:44;;;;;;;;;;;11.50;34.20;;;;;;4999651;28;19937;-79
2021/12/11 15:27:15;;;;;;;;;;;11.30;35.40;;;;;;5035950;28;19920;-79
2021/12/11 15:29:46;;;;;;;;;;;11.20;36.50;;;;;;5029307;28;20430;-80
2021/12/11 15:32:13;;;;;;;;;;;11.00;38.20;;;;;;5030762;28;19933;-79
2021/12/11 15:34:40;;;;;;;;;;;10.70;38.90;;;;;;5033953;28;19924;-79
2021/12/11 15:37:08;;;;;;;;;;;10.50;38.20;;;;;;5017553;28;19921;-79
2021/12/11 15:39:38;;;;;;;;;;;10.30;38.80;;;;;;5031679;28;19974;-80
2021/12/11 15:42:06;;;;;;;;;;;10.20;39.40;;;;;;5035797;28;20291;-77
2021/12/11 15:44:41;;;;;;;;;;;10.00;36.80;;;;;;5032811;28;20360;-80
2021/12/11 15:47:08;;;;;;;;;;;9.70;39.80;;;;;;5033016;28;19924;-77
2021/12/11 15:49:36;;;;;;;;;;;9.00;43.20;;;;;;5024636;28;19962;-80
2021/12/11 15:52:04;;;;;;;;;;;8.80;44.80;;;;;;5030234;28;19925;-81
2021/12/11 15:54:31;;;;;;;;;;;8.60;45.00;;;;;;5036699;28;19978;-80
2021/12/11 15:56:58;;;;;;;;;;;8.10;47.10;;;;;;5051510;28;19921;-78
2021/12/11 15:59:25;;;;;;;;;;;7.80;47.70;;;;;;5028611;28;19925;-81
2021/12/11 16:01:52;;;;;;;;;;;7.70;47.70;;;;;;5025458;28;19931;-80
2021/12/11 16:04:24;;;;;;;;;;;7.60;47.50;;;;;;5037091;28;20011;-79
2021/12/11 16:06:52;;;;;;;;;;;7.60;44.30;;;;;;5037361;28;19921;-79
2021/12/11 16:09:21;;;;;;;;;;;7.50;44.90;;;;;;5042048;28;20003;-79
2021/12/11 16:11:50;;;;;;;;;;;7.60;43.20;;;;;;5041903;28;19921;-79
2021/12/11 16:14:21;;;;;;;;;;;7.60;44.70;;;;;;5035284;28;19921;-79
2021/12/11 16:16:50;;;;;;;;;;;7.50;45.90;;;;;;5030878;28;19933;-79
2021/12/11 16:19:18;;;;;;;;;;;7.40;45.90;;;;;;5026172;28;20382;-79
2021/12/11 16:21:46;;;;;;;;;;;7.30;45.50;;;;;;5030437;28;19928;-79
2021/12/11 16:24:13;;;;;;;;;;;7.20;45.80;;;;;;5046356;28;20443;-79
2021/12/11 16:26:42;;;;;;;;;;;7.10;45.90;;;;;;5030625;28;19921;-80
2021/12/11 16:29:10;;;;;;;;;;;7.10;45.40;;;;;;5035080;28;19920;-79
2021/12/11 16:31:38;;;;;;;;;;;7.00;46.10;;;;;;5025559;28;19931;-79
2021/12/11 16:34:06;;;;;;;;;;;7.00;46.40;;;;;;5033537;28;19927;-80
2021/12/11 16:36:41;;;;;;;;;;;6.90;46.60;;;;;;5035990;28;19924;-80
2021/12/11 16:39:08;;;;;;;;;;;6.80;46.60;;;;;;5032581;28;19925;-79
2021/12/11 16:41:40;;;;;;;;;;;6.70;46.00;;;;;;5032509;28;19925;-79
2021/12/11 16:44:10;;;;;;;;;;;6.80;44.80;;;;;;5031009;28;19928;-79
2021/12/11 16:46:39;;;;;;;;;;;6.70;47.20;;;;;;5028561;28;19920;-78
2021/12/11 16:49:07;;;;;;;;;;;6.60;47.30;;;;;;5040755;28;20397;-80
2021/12/11 16:51:35;;;;;;;;;;;6.50;47.10;;;;;;5037688;28;19928;-78
2021/12/11 16:54:03;;;;;;;;;;;6.50;46.90;;;;;;5017050;28;19986;-77
2021/12/11 16:56:31;;;;;;;;;;;6.50;47.10;;;;;;5044884;28;19927;-79
2021/12/11 16:58:59;;;;;;;;;;;6.50;47.30;;;;;;5030375;28;19925;-79
2021/12/11 17:01:30;;;;;;;;;;;6.50;46.20;;;;;;5032936;28;19921;-79
2021/12/11 17:03:58;;;;;;;;;;;6.50;46.10;;;;;;5033448;28;20373;-77
2021/12/11 17:06:30;;;;;;;;;;;6.50;46.30;;;;;;5021477;28;20277;-78
2021/12/11 17:08:57;;;;;;;;;;;6.60;45.10;;;;;;5028645;28;19921;-79
2021/12/11 17:11:26;;;;;;;;;;;6.70;44.00;;;;;;5022353;28;19929;-79
2021/12/11 17:13:55;;;;;;;;;;;6.90;43.70;;;;;;5037482;28;20316;-79
2021/12/11 17:16:24;;;;;;;;;;;7.20;42.00;;;;;;5035816;28;20393;-79
2021/12/11 17:18:50;;;;;;;;;;;7.60;40.00;;;;;;5033346;28;19931;-77
2021/12/11 17:21:17;;;;;;;;;;;8.00;39.70;;;;;;5024170;28;19943;-77
2021/12/11 17:23:45;;;;;;;;;;;8.20;39.60;;;;;;5031028;28;19927;-79
2021/12/11 17:26:13;;;;;;;;;;;8.30;38.70;;;;;;5036972;28;20020;-79
2021/12/11 17:29:00;;;;;;;;;;;8.50;38.10;;;;;;5041906;28;19925;-79
2021/12/11 17:31:27;;;;;;;;;;;8.80;37.30;;;;;;5036056;28;19920;-79
2021/12/11 17:33:54;;;;;;;;;;;8.90;37.10;;;;;;5030606;28;19929;-79
2021/12/11 17:36:22;;;;;;;;;;;9.00;36.80;;;;;;5034062;28;19914;-80
2021/12/11 17:38:52;;;;;;;;;;;9.10;37.50;;;;;;5021161;28;19925;-79
2021/12/11 17:41:19;;;;;;;;;;;9.00;37.50;;;;;;5036965;28;20300;-77
2021/12/11 17:43:46;;;;;;;;;;;8.90;37.40;;;;;;5040197;28;19921;-79
2021/12/11 17:46:16;;;;;;;;;;;8.90;36.50;;;;;;5038907;28;19924;-79
2021/12/11 17:48:43;;;;;;;;;;;9.00;36.40;;;;;;5039046;28;19920;-78
2021/12/11 17:51:10;;;;;;;;;;;9.10;36.40;;;;;;5034452;28;19929;-80
2021/12/11 17:53:38;;;;;;;;;;;9.10;36.50;;;;;;5025718;28;19925;-80
2021/12/11 17:56:06;;;;;;;;;;;9.10;37.20;;;;;;5025517;28;19925;-80
2021/12/11 17:58:35;;;;;;;;;;;9.20;36.20;;;;;;5030496;28;19932;-79
2021/12/11 18:01:08;;;;;;;;;;;9.20;36.30;;;;;;5038782;28;19921;-79
2021/12/11 18:03:36;;;;;;;;;;;9.30;37.00;;;;;;5051016;28;19924;-79
2021/12/11 18:06:05;;;;;;;;;;;9.20;36.00;;;;;;5050541;28;19924;-80
2021/12/11 18:08:34;;;;;;;;;;;9.20;36.10;;;;;;5030601;28;19928;-79
2021/12/11 18:11:05;;;;;;;;;;;9.30;36.00;;;;;;5031640;28;19921;-80
2021/12/11 18:13:40;;;;;;;;;;;9.20;36.10;;;;;;5031875;28;19920;-80
2021/12/11 18:16:10;;;;;;;;;;;9.30;35.80;;;;;;5050602;28;19937;-78
2021/12/11 18:18:41;;;;;;;;;;;9.30;35.90;;;;;;5034872;28;19974;-80
2021/12/11 18:21:14;;;;;;;;;;;9.30;35.50;;;;;;5029863;28;20446;-80
2021/12/11 18:23:41;;;;;;;;;;;9.40;35.60;;;;;;5053305;28;19929;-80
2021/12/11 18:26:11;;;;;;;;;;;9.30;36.10;;;;;;5052802;28;19921;-80
2021/12/11 18:28:38;;;;;;;;;;;9.30;35.50;;;;;;5029885;28;20385;-79
2021/12/11 18:31:07;;;;;;;;;;;9.40;35.70;;;;;;5029183;28;19928;-79
2021/12/11 18:33:34;;;;;;;;;;;9.40;35.40;;;;;;5026491;28;19928;-79
2021/12/11 18:36:04;;;;;;;;;;;9.40;35.40;;;;;;5042824;28;19928;-79
2021/12/11 18:38:31;;;;;;;;;;;9.40;35.50;;;;;;5035448;28;20381;-80
2021/12/11 18:41:02;;;;;;;;;;;9.40;35.30;;;;;;5033183;28;19927;-79
2021/12/11 18:43:33;;;;;;;;;;;9.30;35.90;;;;;;5041421;28;19904;-79
2021/12/11 18:46:01;;;;;;;;;;;9.30;35.90;;;;;;5037391;28;19996;-78
2021/12/11 18:48:30;;;;;;;;;;;9.30;35.80;;;;;;5038463;28;20292;-80
2021/12/11 18:50:58;;;;;;;;;;;9.20;35.90;;;;;;5054765;28;20388;-80
2021/12/11 18:53:25;;;;;;;;;;;9.30;36.00;;;;;;5038507;28;19932;-79
2021/12/11 18:55:54;;;;;;;;;;;9.20;36.00;;;;;;5043598;28;19952;-78
2021/12/11 18:58:23;;;;;;;;;;;9.20;35.60;;;;;;5043458;28;19982;-78
2021/12/11 19:00:55;;;;;;;;;;;9.30;35.90;;;;;;5048730;28;19924;-80
2021/12/11 19:03:22;;;;;;;;;;;9.30;35.70;;;;;;5032453;28;19921;-80
2021/12/11 19:05:51;;;;;;;;;;;9.20;35.80;;;;;;5032865;28;19925;-78